Time;durP1;ratioP1;P1;durP2;ratioP2;P2;SDS_P1;SDS_P2;PMS_P1;PMS_P2;Temp;Humidity;BMP_temperature;BMP_pressure;BME280_temperature;BME280_humidity;BME280_pressure;Samples;Min_cycle;Max_cycle;Signal;HPM_P1;HPM_P2
2023/10/21 00:00:43;;;;;;;0.20;0.20;;;17.90;99.90;;;;;;5029088;28;20248;-87
2023/10/21 00:03:09;;;;;;;0.20;0.20;;;18.00;99.90;;;;;;5029282;28;20240;-87
2023/10/21 00:05:35;;;;;;;0.20;0.20;;;18.10;99.90;;;;;;5013538;28;20221;-85
2023/10/21 00:08:01;;;;;;;0.20;0.20;;;18.10;99.90;;;;;;5046420;28;20748;-87
2023/10/21 00:10:26;;;;;;;0.20;0.20;;;18.20;99.90;;;;;;5029641;28;20247;-86
2023/10/21 00:12:52;;;;;;;0.20;0.20;;;18.20;99.90;;;;;;5030351;28;20206;-86
2023/10/21 00:15:18;;;;;;;0.30;0.30;;;18.20;99.90;;;;;;5046274;28;20264;-87
2023/10/21 00:17:44;;;;;;;0.20;0.20;;;18.30;99.90;;;;;;5013591;28;20348;-85
2023/10/21 00:20:12;;;;;;;0.20;0.20;;;18.30;99.90;;;;;;5013242;28;20233;-85
2023/10/21 00:22:37;;;;;;;0.20;0.20;;;18.30;99.90;;;;;;5029654;28;20197;-85
2023/10/21 00:25:04;;;;;;;0.17;0.17;;;18.30;99.90;;;;;;5030388;28;20242;-86
2023/10/21 00:27:30;;;;;;;0.10;0.10;;;18.40;99.90;;;;;;5046404;28;20213;-88
2023/10/21 00:29:56;;;;;;;0.20;0.20;;;18.30;99.90;;;;;;5046318;28;20279;-85
2023/10/21 00:32:21;;;;;;;0.20;0.20;;;18.30;99.90;;;;;;5027558;28;20683;-87
2023/10/21 00:34:49;;;;;;;0.30;0.30;;;18.20;99.90;;;;;;5026785;28;21108;-87
2023/10/21 00:37:15;;;;;;;0.20;0.20;;;18.20;99.90;;;;;;5010448;28;20178;-85
2023/10/21 00:39:42;;;;;;;0.20;0.20;;;18.00;99.90;;;;;;5029374;28;20845;-85
2023/10/21 00:42:08;;;;;;;0.20;0.20;;;18.10;99.90;;;;;;5028082;28;20226;-86
2023/10/21 00:44:34;;;;;;;0.27;0.27;;;18.00;99.90;;;;;;5044224;28;20249;-85
2023/10/21 00:47:00;;;;;;;0.10;0.10;;;18.00;99.90;;;;;;5010745;28;20227;-86
2023/10/21 00:49:28;;;;;;;0.20;0.20;;;18.00;99.90;;;;;;5044236;28;20214;-86
2023/10/21 00:51:56;;;;;;;0.20;0.20;;;18.00;99.90;;;;;;5044724;28;20189;-85
2023/10/21 00:54:27;;;;;;;0.20;0.20;;;17.90;99.90;;;;;;5026518;28;20290;-87
2023/10/21 00:56:56;;;;;;;0.20;0.20;;;17.80;99.90;;;;;;5042905;28;20217;-85
2023/10/21 00:59:23;;;;;;;0.23;0.23;;;17.80;99.90;;;;;;5042955;28;20302;-85
2023/10/21 01:01:50;;;;;;;0.20;0.20;;;17.80;99.90;;;;;;5043428;28;20229;-86
2023/10/21 01:04:16;;;;;;;0.30;0.30;;;17.70;99.90;;;;;;5009917;28;20210;-86
2023/10/21 01:06:43;;;;;;;0.20;0.20;;;17.70;99.90;;;;;;5025573;28;20218;-86
2023/10/21 01:09:10;;;;;;;0.20;0.20;;;17.70;99.90;;;;;;5026412;28;20772;-84
2023/10/21 01:11:37;;;;;;;0.20;0.20;;;17.70;99.90;;;;;;5042762;28;20225;-84
2023/10/21 01:14:03;;;;;;;0.30;0.30;;;17.80;99.90;;;;;;5010115;28;20229;-88
2023/10/21 01:16:29;;;;;;;0.20;0.20;;;17.80;99.90;;;;;;5042135;28;20189;-89
2023/10/21 01:18:55;;;;;;;0.27;0.27;;;17.70;99.90;;;;;;5026159;28;20182;-87
2023/10/21 01:21:20;;;;;;;0.20;0.20;;;17.60;99.90;;;;;;5043575;28;20217;-85
2023/10/21 01:23:46;;;;;;;0.27;0.27;;;17.60;99.90;;;;;;5025749;28;20233;-86
2023/10/21 01:26:12;;;;;;;0.20;0.20;;;17.60;99.90;;;;;;5027398;28;20241;-84
2023/10/21 01:28:38;;;;;;;0.20;0.20;;;17.60;99.90;;;;;;5034349;28;20193;-84
2023/10/21 01:31:04;;;;;;;0.20;0.20;;;17.60;99.90;;;;;;5053191;28;20209;-85
2023/10/21 01:33:30;;;;;;;0.20;0.20;;;17.60;99.90;;;;;;5052904;28;20237;-83
2023/10/21 01:35:56;;;;;;;0.20;0.20;;;17.60;99.90;;;;;;5034986;28;20249;-84
2023/10/21 01:38:21;;;;;;;0.13;0.13;;;17.60;99.90;;;;;;5034986;28;20352;-85
2023/10/21 01:40:49;;;;;;;0.27;0.27;;;17.50;99.90;;;;;;5051265;28;20242;-83
2023/10/21 01:43:15;;;;;;;0.30;0.30;;;17.50;99.90;;;;;;5052986;28;20208;-84
2023/10/21 01:45:41;;;;;;;0.20;0.20;;;17.40;99.90;;;;;;5034487;28;20296;-84
2023/10/21 01:48:08;;;;;;;0.20;0.20;;;17.40;99.90;;;;;;5034938;28;20225;-85
2023/10/21 01:50:34;;;;;;;0.27;0.27;;;17.40;99.90;;;;;;5051255;28;20228;-85
2023/10/21 01:53:00;;;;;;;0.30;0.30;;;17.40;99.90;;;;;;5052596;28;20294;-85
2023/10/21 01:55:26;;;;;;;0.20;0.20;;;17.40;99.90;;;;;;5050969;28;20587;-85
2023/10/21 01:57:51;;;;;;;0.30;0.30;;;17.30;99.90;;;;;;5051531;28;20559;-85
2023/10/21 02:00:20;;;;;;;0.20;0.20;;;17.40;99.90;;;;;;5052784;28;20307;-84
2023/10/21 02:02:51;;;;;;;0.30;0.30;;;17.30;99.90;;;;;;5051277;28;20217;-83
2023/10/21 02:05:17;;;;;;;0.20;0.20;;;17.40;99.90;;;;;;5034666;28;20371;-84
2023/10/21 02:07:43;;;;;;;0.20;0.20;;;17.30;99.90;;;;;;5052349;28;20220;-85
2023/10/21 02:10:09;;;;;;;0.20;0.20;;;17.40;99.90;;;;;;5018364;28;20575;-84
2023/10/21 02:12:35;;;;;;;0.20;0.20;;;17.50;99.90;;;;;;5034754;28;20214;-84
2023/10/21 02:15:01;;;;;;;0.20;0.20;;;17.60;99.90;;;;;;5052174;28;20592;-84
2023/10/21 02:17:26;;;;;;;0.20;0.20;;;17.60;99.90;;;;;;5050931;28;20214;-84
2023/10/21 02:19:56;;;;;;;0.20;0.20;;;17.60;99.90;;;;;;5034426;28;20213;-84
2023/10/21 02:22:26;;;;;;;0.20;0.20;;;17.60;99.90;;;;;;5051188;28;20220;-85
2023/10/21 02:24:56;;;;;;;0.20;0.20;;;17.60;99.90;;;;;;5034339;28;20754;-84
2023/10/21 02:27:22;;;;;;;0.20;0.20;;;17.60;99.90;;;;;;5051032;28;20276;-85
2023/10/21 02:29:49;;;;;;;0.20;0.20;;;17.60;99.90;;;;;;5034536;28;20271;-84
2023/10/21 02:32:15;;;;;;;0.20;0.20;;;17.50;99.90;;;;;;5051945;28;20217;-84
2023/10/21 02:34:41;;;;;;;0.20;0.20;;;17.50;99.90;;;;;;5051639;28;20630;-85
2023/10/21 02:37:08;;;;;;;0.20;0.20;;;17.40;99.90;;;;;;5051634;28;20545;-84
2023/10/21 02:39:34;;;;;;;0.20;0.20;;;17.40;99.90;;;;;;5052600;28;20220;-84
2023/10/21 02:41:59;;;;;;;0.30;0.30;;;17.40;99.90;;;;;;5055070;28;20616;-84
2023/10/21 02:44:25;;;;;;;0.30;0.30;;;17.30;99.90;;;;;;5038136;28;20584;-84
2023/10/21 02:46:51;;;;;;;0.20;0.20;;;17.30;99.90;;;;;;5038463;28;20292;-84
2023/10/21 02:49:16;;;;;;;0.20;0.20;;;17.20;99.90;;;;;;5056690;28;20209;-84
2023/10/21 02:51:42;;;;;;;0.10;0.10;;;17.10;99.90;;;;;;5038301;28;20722;-85
2023/10/21 02:54:08;;;;;;;0.20;0.20;;;17.10;99.90;;;;;;5038249;28;20667;-85
2023/10/21 02:56:34;;;;;;;0.10;0.10;;;17.20;99.90;;;;;;5054713;28;20270;-85
2023/10/21 02:59:00;;;;;;;0.20;0.20;;;17.30;99.90;;;;;;5037859;28;20240;-84
2023/10/21 03:01:26;;;;;;;0.20;0.20;;;17.30;99.90;;;;;;5054535;28;20178;-84
2023/10/21 03:03:52;;;;;;;0.30;0.30;;;17.40;99.90;;;;;;5055834;28;20198;-85
2023/10/21 03:06:21;;;;;;;0.20;0.20;;;17.40;99.90;;;;;;5054636;28;20217;-84
2023/10/21 03:08:47;;;;;;;0.20;0.20;;;17.40;99.90;;;;;;5054451;28;20238;-84
2023/10/21 03:11:14;;;;;;;0.23;0.23;;;17.40;99.90;;;;;;5054389;28;20217;-83
2023/10/21 03:13:39;;;;;;;0.23;0.23;;;17.40;99.90;;;;;;5053824;28;20194;-85
2023/10/21 03:16:06;;;;;;;0.10;0.10;;;17.40;99.90;;;;;;5054482;28;20373;-85
2023/10/21 03:18:33;;;;;;;0.20;0.20;;;17.50;99.90;;;;;;5055025;28;20225;-84
2023/10/21 03:20:59;;;;;;;0.10;0.10;;;17.50;99.90;;;;;;5037555;28;20238;-84
2023/10/21 03:23:25;;;;;;;0.17;0.17;;;17.40;99.90;;;;;;5053797;28;20261;-85
2023/10/21 03:25:58;;;;;;;0.20;0.20;;;17.40;99.90;;;;;;5055095;28;20234;-84
2023/10/21 03:28:26;;;;;;;0.30;0.30;;;17.30;99.90;;;;;;5054991;28;20609;-84
2023/10/21 03:30:58;;;;;;;0.30;0.30;;;17.30;99.90;;;;;;5055332;28;20217;-85
2023/10/21 03:33:24;;;;;;;0.20;0.20;;;17.20;99.90;;;;;;5054129;28;20697;-84
2023/10/21 03:35:57;;;;;;;0.30;0.30;;;17.20;99.90;;;;;;5055120;28;20245;-84
2023/10/21 03:38:23;;;;;;;0.20;0.20;;;17.20;99.90;;;;;;5055052;28;20285;-83
2023/10/21 03:41:08;;;;;;;0.20;0.20;;;17.20;99.90;;;;;;5053488;28;20210;-83
2023/10/21 03:43:34;;;;;;;0.20;0.20;;;17.10;99.90;;;;;;5054016;28;20233;-84
2023/10/21 03:46:05;;;;;;;0.20;0.20;;;17.20;99.90;;;;;;5037694;28;20324;-85
2023/10/21 03:48:34;;;;;;;0.30;0.30;;;17.20;99.90;;;;;;5054883;28;20225;-84
2023/10/21 03:51:09;;;;;;;0.20;0.20;;;17.20;99.90;;;;;;5053838;28;20222;-84
2023/10/21 03:53:35;;;;;;;0.20;0.20;;;17.10;99.90;;;;;;5037153;28;20232;-84
2023/10/21 03:56:02;;;;;;;0.30;0.30;;;17.10;99.90;;;;;;5053410;28;20605;-84
2023/10/21 03:58:29;;;;;;;0.30;0.30;;;17.10;99.90;;;;;;5054403;28;20190;-85
2023/10/21 04:00:57;;;;;;;0.20;0.20;;;17.10;99.90;;;;;;5054986;28;20184;-84
2023/10/21 04:03:26;;;;;;;0.20;0.20;;;17.10;99.90;;;;;;5053017;28;20236;-85
2023/10/21 04:05:56;;;;;;;0.30;0.30;;;17.10;99.90;;;;;;5053203;28;20241;-85
2023/10/21 04:08:22;;;;;;;0.20;0.20;;;17.00;99.90;;;;;;5052973;28;20210;-85
2023/10/21 04:10:48;;;;;;;0.20;0.20;;;17.00;99.90;;;;;;5054350;28;20284;-84
2023/10/21 04:13:14;;;;;;;0.20;0.20;;;17.00;99.90;;;;;;5036709;28;20209;-84
2023/10/21 04:15:40;;;;;;;0.20;0.20;;;16.90;99.90;;;;;;5052957;28;20222;-85
2023/10/21 04:18:06;;;;;;;0.20;0.20;;;17.00;99.90;;;;;;5052756;28;20305;-85
2023/10/21 04:20:31;;;;;;;0.20;0.20;;;16.90;99.90;;;;;;5019649;28;20279;-84
2023/10/21 04:22:58;;;;;;;0.30;0.30;;;16.90;99.90;;;;;;5020117;28;20600;-85
2023/10/21 04:25:25;;;;;;;0.10;0.10;;;16.90;99.90;;;;;;5053129;28;20229;-84
2023/10/21 04:27:50;;;;;;;0.30;0.30;;;16.90;99.90;;;;;;5053108;28;20225;-83
2023/10/21 04:30:16;;;;;;;0.20;0.20;;;16.90;99.90;;;;;;5036237;28;20217;-84
2023/10/21 04:32:42;;;;;;;0.30;0.30;;;16.90;99.90;;;;;;5036098;28;20241;-84
2023/10/21 04:35:08;;;;;;;0.20;0.20;;;16.80;99.90;;;;;;5019639;28;20218;-84
2023/10/21 04:37:35;;;;;;;0.30;0.30;;;16.80;99.90;;;;;;5053136;28;20328;-85
2023/10/21 04:40:02;;;;;;;0.20;0.20;;;16.80;99.90;;;;;;5036331;28;20229;-84
2023/10/21 04:42:28;;;;;;;0.20;0.20;;;16.70;99.90;;;;;;5036256;28;20221;-84
2023/10/21 04:44:54;;;;;;;0.20;0.20;;;16.70;99.90;;;;;;5036219;28;20253;-84
2023/10/21 04:47:20;;;;;;;0.30;0.30;;;16.70;99.90;;;;;;5052738;28;20214;-83
2023/10/21 04:49:46;;;;;;;0.20;0.20;;;16.70;99.90;;;;;;5035934;28;20222;-84
2023/10/21 04:52:12;;;;;;;0.27;0.27;;;16.60;99.90;;;;;;5052724;28;20618;-85
2023/10/21 04:54:38;;;;;;;0.20;0.20;;;16.60;99.90;;;;;;5035724;28;20233;-84
2023/10/21 04:57:04;;;;;;;0.27;0.27;;;16.50;99.90;;;;;;5035982;28;20218;-84
2023/10/21 04:59:30;;;;;;;0.20;0.20;;;16.40;99.90;;;;;;5052006;28;20226;-84
2023/10/21 05:01:56;;;;;;;0.20;0.20;;;16.40;99.90;;;;;;5051800;28;20225;-84
2023/10/21 05:04:22;;;;;;;0.20;0.20;;;16.40;99.90;;;;;;5018950;28;20653;-84
2023/10/21 05:06:48;;;;;;;0.20;0.20;;;16.40;99.90;;;;;;5035502;28;20226;-85
2023/10/21 05:09:16;;;;;;;0.20;0.20;;;16.30;99.90;;;;;;5052708;28;20297;-84
2023/10/21 05:11:41;;;;;;;0.20;0.20;;;16.40;99.90;;;;;;5035837;28;20217;-84
2023/10/21 05:14:07;;;;;;;0.20;0.20;;;16.40;99.90;;;;;;5052536;28;20264;-85
2023/10/21 05:16:33;;;;;;;0.27;0.27;;;16.40;99.90;;;;;;5018304;28;20178;-85
2023/10/21 05:18:59;;;;;;;0.20;0.20;;;16.40;99.90;;;;;;5052462;28;20183;-83
2023/10/21 05:21:24;;;;;;;0.20;0.20;;;16.40;99.90;;;;;;5052183;28;20228;-84
2023/10/21 05:23:51;;;;;;;0.20;0.20;;;16.40;99.90;;;;;;5035143;28;20234;-84
2023/10/21 05:26:18;;;;;;;0.20;0.20;;;16.50;99.90;;;;;;5034949;28;20236;-85
2023/10/21 05:28:45;;;;;;;0.30;0.30;;;16.40;99.90;;;;;;5051703;28;20376;-84
2023/10/21 05:31:10;;;;;;;0.23;0.23;;;16.40;99.90;;;;;;5053162;28;20182;-83
2023/10/21 05:33:36;;;;;;;0.30;0.30;;;16.40;99.90;;;;;;5053038;28;20225;-85
2023/10/21 05:36:03;;;;;;;0.20;0.20;;;16.40;99.90;;;;;;5044845;28;20229;-84
2023/10/21 05:38:28;;;;;;;0.20;0.20;;;16.30;99.90;;;;;;5055415;28;20359;-83
2023/10/21 05:40:55;;;;;;;0.20;0.20;;;16.30;99.90;;;;;;5035071;28;20293;-84
2023/10/21 05:43:21;;;;;;;0.30;0.30;;;16.30;99.90;;;;;;5053080;28;20221;-83
2023/10/21 05:45:47;;;;;;;0.30;0.30;;;16.30;99.90;;;;;;5051433;28;20217;-84
2023/10/21 05:48:13;;;;;;;0.20;0.20;;;16.30;99.90;;;;;;5052613;28;20309;-83
2023/10/21 05:50:39;;;;;;;0.20;0.20;;;16.40;99.90;;;;;;5034799;28;20239;-85
2023/10/21 05:53:04;;;;;;;0.20;0.20;;;16.40;99.90;;;;;;5034542;28;20218;-85
2023/10/21 05:55:30;;;;;;;0.20;0.20;;;16.40;99.90;;;;;;5052359;28;20699;-84
2023/10/21 05:57:56;;;;;;;0.20;0.20;;;16.40;99.90;;;;;;5052706;28;20241;-84
2023/10/21 06:00:22;;;;;;;0.20;0.20;;;16.40;99.90;;;;;;5034582;28;20213;-84
2023/10/21 06:02:48;;;;;;;0.30;0.30;;;16.40;99.90;;;;;;5034662;28;20642;-83
2023/10/21 06:05:14;;;;;;;0.10;0.10;;;16.40;99.90;;;;;;5034275;28;20246;-84
2023/10/21 06:07:41;;;;;;;0.30;0.30;;;16.40;99.90;;;;;;5034131;28;20205;-84
2023/10/21 06:10:08;;;;;;;0.20;0.20;;;16.40;99.90;;;;;;5051398;28;20182;-84
2023/10/21 06:12:33;;;;;;;0.20;0.20;;;16.40;99.90;;;;;;5050974;28;20217;-83
2023/10/21 06:15:00;;;;;;;0.20;0.20;;;16.50;99.90;;;;;;5050254;28;20225;-85
2023/10/21 06:17:25;;;;;;;0.20;0.20;;;16.50;99.90;;;;;;5017459;28;20218;-83
2023/10/21 06:19:52;;;;;;;0.30;0.30;;;16.50;99.90;;;;;;5050814;28;20296;-85
2023/10/21 06:22:22;;;;;;;0.30;0.30;;;16.50;99.90;;;;;;5035334;28;20280;-84
2023/10/21 06:24:49;;;;;;;0.30;0.30;;;16.40;99.90;;;;;;5050630;28;20663;-84
2023/10/21 06:27:14;;;;;;;0.20;0.20;;;16.40;99.90;;;;;;5017954;28;20284;-83
2023/10/21 06:29:40;;;;;;;0.20;0.20;;;16.40;99.90;;;;;;5034096;28;20279;-85
2023/10/21 06:32:08;;;;;;;0.30;0.30;;;16.40;99.90;;;;;;5034277;28;20267;-84
2023/10/21 06:34:34;;;;;;;0.13;0.13;;;16.50;99.90;;;;;;5050507;28;20231;-85
2023/10/21 06:37:00;;;;;;;0.30;0.30;;;16.50;99.90;;;;;;5034378;28;20662;-84
2023/10/21 06:39:26;;;;;;;0.20;0.20;;;16.40;99.90;;;;;;5051964;28;20248;-84
2023/10/21 06:41:52;;;;;;;0.20;0.20;;;16.40;99.90;;;;;;5034314;28;20293;-84
2023/10/21 06:44:18;;;;;;;0.20;0.20;;;16.30;99.90;;;;;;5050347;28;20233;-84
2023/10/21 06:46:44;;;;;;;0.20;0.20;;;16.30;99.90;;;;;;5050723;28;22573;-82
2023/10/21 06:49:10;;;;;;;0.23;0.23;;;16.30;99.90;;;;;;5051220;28;20657;-84
2023/10/21 06:51:36;;;;;;;0.20;0.20;;;16.20;99.90;;;;;;5051279;28;20248;-84
2023/10/21 06:54:05;;;;;;;0.30;0.30;;;16.20;99.90;;;;;;5051844;28;20231;-83
2023/10/21 06:56:31;;;;;;;0.17;0.17;;;16.20;99.90;;;;;;5050339;28;20218;-84
2023/10/21 06:58:57;;;;;;;0.30;0.30;;;16.30;99.90;;;;;;5050527;28;20218;-83
2023/10/21 07:01:23;;;;;;;0.20;0.20;;;16.30;99.90;;;;;;5052428;28;20509;-82
2023/10/21 07:03:49;;;;;;;0.10;0.10;;;16.40;99.90;;;;;;5050410;28;20230;-84
2023/10/21 07:06:18;;;;;;;0.30;0.30;;;16.50;99.90;;;;;;5033391;28;20229;-83
2023/10/21 07:08:44;;;;;;;0.20;0.20;;;16.50;99.90;;;;;;5050046;28;20222;-84
2023/10/21 07:11:10;;;;;;;0.20;0.20;;;16.50;99.90;;;;;;5050128;28;20217;-83
2023/10/21 07:13:36;;;;;;;0.20;0.20;;;16.50;99.90;;;;;;5017217;28;20618;-83
2023/10/21 07:16:10;;;;;;;0.10;0.10;;;16.50;99.90;;;;;;5017583;28;20182;-84
2023/10/21 07:18:39;;;;;;;0.33;0.33;;;16.50;99.90;;;;;;5034467;28;20224;-83
2023/10/21 07:21:08;;;;;;;3.73;3.23;;;16.60;99.90;;;;;;5051355;28;20305;-84
2023/10/21 07:23:35;;;;;;;4.53;4.13;;;16.70;99.90;;;;;;5033851;28;20275;-84
2023/10/21 07:26:02;;;;;;;8.43;4.87;;;16.80;99.90;;;;;;5051717;28;20694;-83
2023/10/21 07:28:28;;;;;;;3.53;3.20;;;16.90;99.90;;;;;;5053649;28;20181;-83
2023/10/21 07:30:54;;;;;;;6.33;4.20;;;17.00;99.90;;;;;;5054182;28;20593;-84
2023/10/21 07:33:21;;;;;;;8.23;4.43;;;17.10;99.90;;;;;;5037147;28;20245;-83
2023/10/21 07:35:53;;;;;;;8.97;4.83;;;17.20;99.90;;;;;;5053544;28;20218;-84
2023/10/21 07:38:20;;;;;;;3.67;2.73;;;17.30;99.90;;;;;;5037725;28;20227;-84
2023/10/21 07:40:46;;;;;;;5.80;4.37;;;17.40;99.90;;;;;;5054363;28;20225;-85
2023/10/21 07:43:12;;;;;;;6.87;3.50;;;17.50;99.90;;;;;;5038215;28;20214;-86
2023/10/21 07:45:41;;;;;;;8.40;4.87;;;17.50;99.90;;;;;;5037880;28;20817;-86
2023/10/21 07:48:07;;;;;;;6.97;5.03;;;17.60;99.90;;;;;;5037790;28;20218;-86
2023/10/21 07:50:33;;;;;;;3.70;2.57;;;17.70;99.90;;;;;;5053370;28;20220;-85
2023/10/21 07:52:59;;;;;;;4.13;3.70;;;17.70;99.90;;;;;;5054060;28;20242;-85
2023/10/21 07:55:25;;;;;;;4.90;3.50;;;17.80;99.90;;;;;;5054249;28;20228;-85
2023/10/21 07:57:51;;;;;;;5.70;3.17;;;17.90;99.90;;;;;;5054418;28;20240;-85
2023/10/21 08:00:17;;;;;;;3.83;3.27;;;17.90;99.90;;;;;;5054031;28;20230;-85
2023/10/21 08:02:43;;;;;;;6.50;3.53;;;18.00;99.90;;;;;;5054025;28;20230;-85
2023/10/21 08:05:09;;;;;;;8.97;3.70;;;18.00;99.90;;;;;;5054905;28;20236;-84
2023/10/21 08:07:36;;;;;;;5.97;4.40;;;18.10;99.90;;;;;;5053716;28;20197;-87
2023/10/21 08:10:05;;;;;;;6.13;3.40;;;18.10;99.90;;;;;;5054938;28;20217;-86
2023/10/21 08:12:34;;;;;;;4.83;3.70;;;18.20;99.90;;;;;;5053599;28;20685;-86
2023/10/21 08:15:10;;;;;;;3.40;2.43;;;18.30;99.90;;;;;;5036503;28;20218;-87
2023/10/21 08:17:36;;;;;;;8.40;5.20;;;19.40;99.90;;;;;;5037214;28;20209;-86
2023/10/21 08:20:08;;;;;;;12.37;5.13;;;20.20;99.90;;;;;;5053178;28;20221;-85
2023/10/21 08:22:34;;;;;;;10.23;5.13;;;20.50;99.90;;;;;;5053055;28;20190;-86
2023/10/21 08:25:00;;;;;;;6.43;4.73;;;20.20;99.90;;;;;;5036791;28;20250;-84
2023/10/21 08:27:26;;;;;;;5.13;2.90;;;19.90;99.90;;;;;;5052911;28;20309;-84
2023/10/21 08:29:53;;;;;;;4.83;3.70;;;19.70;99.90;;;;;;5035937;28;20226;-84
2023/10/21 08:32:19;;;;;;;5.13;3.33;;;19.60;99.90;;;;;;5035707;28;20218;-84
2023/10/21 08:34:45;;;;;;;4.40;3.43;;;19.60;99.90;;;;;;5053622;28;20279;-84
2023/10/21 08:37:11;;;;;;;3.77;3.40;;;19.50;99.90;;;;;;5052615;28;20179;-83
2023/10/21 08:39:37;;;;;;;12.63;3.30;;;19.70;99.90;;;;;;5053014;28;20244;-83
2023/10/21 08:42:03;;;;;;;6.37;3.70;;;19.60;99.90;;;;;;5053788;28;20218;-84
2023/10/21 08:44:32;;;;;;;9.63;3.37;;;19.60;99.90;;;;;;5052189;28;20292;-83
2023/10/21 08:46:59;;;;;;;8.97;5.17;;;19.60;99.90;;;;;;5051977;28;20255;-82
2023/10/21 08:49:25;;;;;;;9.67;4.23;;;19.70;99.90;;;;;;5052240;28;20229;-82
2023/10/21 08:51:52;;;;;;;6.93;4.43;;;19.70;99.90;;;;;;5052192;28;20193;-83
2023/10/21 08:54:19;;;;;;;4.70;2.87;;;19.60;99.90;;;;;;5053116;28;20804;-83
2023/10/21 08:56:45;;;;;;;5.20;4.60;;;19.80;99.90;;;;;;5052139;28;20222;-83
2023/10/21 08:59:14;;;;;;;5.63;3.97;;;19.80;99.90;;;;;;5052068;28;20229;-84
2023/10/21 09:01:40;;;;;;;9.53;4.67;;;19.70;99.90;;;;;;5053077;28;20178;-86
2023/10/21 09:04:07;;;;;;;7.57;5.93;;;19.80;99.90;;;;;;5035869;28;20216;-85
2023/10/21 09:06:32;;;;;;;6.07;4.10;;;19.60;99.90;;;;;;5052135;28;20229;-83
2023/10/21 09:08:58;;;;;;;5.33;3.87;;;19.60;99.90;;;;;;5051789;28;20221;-82
2023/10/21 09:11:26;;;;;;;4.40;4.00;;;19.70;99.90;;;;;;5035083;28;20292;-88
2023/10/21 09:13:56;;;;;;;4.40;3.93;;;19.70;99.90;;;;;;5051650;28;20275;-84
2023/10/21 09:16:31;;;;;;;10.20;3.57;;;19.80;99.90;;;;;;5036064;28;20194;-82
2023/10/21 09:19:07;;;;;;;9.83;4.77;;;19.90;99.90;;;;;;5051719;28;20263;-84
2023/10/21 09:21:40;;;;;;;5.87;3.47;;;19.80;99.90;;;;;;5052972;28;20288;-83
2023/10/21 09:24:10;;;;;;;8.70;4.60;;;19.00;99.90;;;;;;5051628;28;20226;-84
2023/10/21 09:26:38;;;;;;;10.60;5.40;;;18.80;99.90;;;;;;5053067;28;20234;-83
2023/10/21 09:29:06;;;;;;;4.10;3.60;;;18.90;99.90;;;;;;5034984;28;20257;-86
2023/10/21 09:32:01;;;;;;;3.67;3.00;;;18.80;99.90;;;;;;5050898;28;20185;-83
2023/10/21 09:34:32;;;;;;;5.83;4.23;;;18.70;99.90;;;;;;5026516;28;20655;-85
2023/10/21 09:37:03;;;;;;;6.63;3.50;;;18.60;99.90;;;;;;5035266;28;20265;-85
2023/10/21 09:39:36;;;;;;;6.63;3.53;;;18.60;99.90;;;;;;5043910;28;20236;-85
2023/10/21 09:42:04;;;;;;;7.13;3.80;;;17.90;99.90;;;;;;5052456;28;20222;-84
2023/10/21 09:44:30;;;;;;;7.10;4.27;;;17.90;99.90;;;;;;5052489;28;20283;-84
2023/10/21 09:46:57;;;;;;;4.70;3.57;;;17.80;99.90;;;;;;5018347;28;20294;-85
2023/10/21 09:49:24;;;;;;;7.07;3.17;;;17.80;99.90;;;;;;5017866;28;20269;-84
2023/10/21 09:52:09;;;;;;;3.77;3.33;;;17.70;99.90;;;;;;5051159;28;20206;-85
2023/10/21 09:55:03;;;;;;;3.60;2.80;;;17.60;99.90;;;;;;5051101;28;20228;-85
2023/10/21 09:57:29;;;;;;;4.07;2.77;;;17.50;99.90;;;;;;5051367;28;20222;-85
2023/10/21 09:59:56;;;;;;;2.77;2.57;;;17.50;99.90;;;;;;5018031;28;20217;-87
2023/10/21 10:02:24;;;;;;;6.63;2.57;;;17.50;99.90;;;;;;5018790;28;20671;-85
2023/10/21 10:04:53;;;;;;;5.80;4.07;;;17.50;99.90;;;;;;5051272;28;20226;-83
2023/10/21 10:07:20;;;;;;;5.50;3.10;;;17.50;99.90;;;;;;5051550;28;20554;-86
2023/10/21 10:09:47;;;;;;;3.63;1.73;;;17.50;99.90;;;;;;5050525;28;20241;-85
2023/10/21 10:12:20;;;;;;;5.37;3.40;;;17.40;99.90;;;;;;5050653;28;20325;-85
2023/10/21 10:14:46;;;;;;;2.80;2.57;;;17.30;99.90;;;;;;5051060;28;20228;-84
2023/10/21 10:17:13;;;;;;;4.50;2.70;;;17.10;99.90;;;;;;5034490;28;20626;-84
2023/10/21 10:19:42;;;;;;;4.47;2.10;;;17.00;99.90;;;;;;5051973;28;20182;-86
2023/10/21 10:22:18;;;;;;;2.23;1.90;;;16.90;99.90;;;;;;5035151;28;20169;-85
2023/10/21 10:24:55;;;;;;;4.37;2.40;;;16.80;99.90;;;;;;5051889;28;20241;-84
2023/10/21 10:27:25;;;;;;;3.40;3.03;;;16.70;99.90;;;;;;5052461;28;20221;-85
2023/10/21 10:29:51;;;;;;;3.23;2.37;;;16.70;99.90;;;;;;5050832;28;20229;-85
2023/10/21 10:32:20;;;;;;;3.47;3.17;;;16.50;99.90;;;;;;5050877;28;20297;-84
2023/10/21 10:34:53;;;;;;;2.43;1.77;;;16.50;99.90;;;;;;5034596;28;20628;-85
2023/10/21 10:37:33;;;;;;;2.40;2.20;;;16.50;99.90;;;;;;5051214;28;20190;-84
2023/10/21 10:40:05;;;;;;;7.37;3.17;;;16.50;99.90;;;;;;5051000;28;20691;-85
2023/10/21 10:42:34;;;;;;;2.73;1.90;;;16.40;99.90;;;;;;5034974;28;20224;-85
2023/10/21 10:45:00;;;;;;;4.30;2.50;;;16.40;99.90;;;;;;5050066;28;20257;-84
2023/10/21 10:47:28;;;;;;;1.70;1.53;;;16.40;99.90;;;;;;5050181;28;20221;-84
2023/10/21 10:49:59;;;;;;;1.30;1.20;;;16.40;99.90;;;;;;5034809;28;20210;-84
2023/10/21 10:52:33;;;;;;;2.23;1.63;;;16.40;99.90;;;;;;5051611;28;20185;-84
2023/10/21 10:55:03;;;;;;;3.33;1.83;;;16.40;99.90;;;;;;5051470;28;20174;-85
2023/10/21 10:57:29;;;;;;;4.63;2.37;;;16.40;99.90;;;;;;5050753;28;20228;-85
2023/10/21 10:59:56;;;;;;;2.13;1.93;;;16.40;99.90;;;;;;5034450;28;20218;-85
2023/10/21 11:02:24;;;;;;;2.27;1.97;;;16.50;99.90;;;;;;5055681;28;20229;-85
2023/10/21 11:04:50;;;;;;;1.63;1.03;;;16.40;99.90;;;;;;5053826;28;20573;-86
2023/10/21 11:07:16;;;;;;;3.77;1.60;;;16.30;99.90;;;;;;5038367;28;20257;-89
2023/10/21 11:09:45;;;;;;;8.20;1.00;;;16.20;99.90;;;;;;5055816;28;20328;-88
2023/10/21 11:12:14;;;;;;;0.90;0.90;;;16.20;99.90;;;;;;5054462;28;20238;-87
2023/10/21 11:14:41;;;;;;;1.97;1.40;;;16.20;99.90;;;;;;5054306;28;20670;-87
2023/10/21 11:17:07;;;;;;;2.23;1.97;;;16.30;99.90;;;;;;5038297;28;20224;-85
2023/10/21 11:19:33;;;;;;;1.87;1.70;;;16.30;99.90;;;;;;5037799;28;20186;-87
2023/10/21 11:22:00;;;;;;;1.40;1.30;;;16.40;99.90;;;;;;5054999;28;20236;-87
2023/10/21 11:24:26;;;;;;;2.07;1.40;;;16.50;99.90;;;;;;5054130;28;20217;-86
2023/10/21 11:26:52;;;;;;;1.13;1.10;;;16.50;99.90;;;;;;5021310;28;20282;-86
2023/10/21 11:29:19;;;;;;;3.67;2.17;;;16.60;99.90;;;;;;5037480;28;20232;-87
2023/10/21 11:31:45;;;;;;;1.37;1.27;;;16.60;99.90;;;;;;5054287;28;20729;-87
2023/10/21 11:34:16;;;;;;;1.50;1.40;;;16.80;99.90;;;;;;5022010;28;20190;-86
2023/10/21 11:36:44;;;;;;;1.33;1.23;;;16.90;99.90;;;;;;5054573;28;20222;-85
2023/10/21 11:39:13;;;;;;;0.97;0.97;;;16.90;99.90;;;;;;5054158;28;20246;-86
2023/10/21 11:41:46;;;;;;;2.87;2.67;;;16.90;99.90;;;;;;5021832;28;20311;-87
2023/10/21 11:44:14;;;;;;;1.87;1.77;;;16.80;99.90;;;;;;5053404;28;20249;-84
2023/10/21 11:46:41;;;;;;;4.07;1.27;;;16.90;99.90;;;;;;5037529;28;20194;-85
2023/10/21 11:49:15;;;;;;;2.77;2.00;;;16.90;99.90;;;;;;5037841;28;20184;-85
2023/10/21 11:51:47;;;;;;;1.70;1.50;;;16.80;99.90;;;;;;5053320;28;20271;-85
2023/10/21 12:18:26;;;;;;;0.73;0.67;;;16.40;99.90;;;;;;5053552;28;20670;-85
2023/10/21 12:22:12;;;;;;;2.53;0.77;;;16.40;99.90;;;;;;5053302;28;20217;-84
2023/10/21 12:32:29;;;;;;;0.60;0.60;;;16.70;99.90;;;;;;5039356;28;20268;-85
2023/10/21 12:39:58;;;;;;;1.20;0.80;;;17.00;99.90;;;;;;5053983;28;20210;-85
2023/10/21 12:42:41;;;;;;;5.37;0.70;;;17.20;99.90;;;;;;5052714;28;20665;-85
2023/10/21 12:45:34;;;;;;;0.73;0.63;;;17.20;99.90;;;;;;5037751;28;20226;-86
2023/10/21 12:47:57;;;;;;;1.77;1.10;;;17.20;99.90;;;;;;5053376;28;20213;-85
2023/10/21 12:50:23;;;;;;;1.50;0.80;;;17.20;99.90;;;;;;5053589;28;20213;-85
2023/10/21 12:52:49;;;;;;;0.60;0.60;;;17.10;99.90;;;;;;5035847;28;20230;-86
2023/10/21 12:55:15;;;;;;;3.60;0.80;;;17.00;99.90;;;;;;5036502;28;20182;-85
2023/10/21 12:57:43;;;;;;;3.33;0.80;;;17.00;99.90;;;;;;5052421;28;20537;-84
2023/10/21 13:00:11;;;;;;;3.73;0.87;;;17.00;99.90;;;;;;5035932;28;20245;-86
2023/10/21 13:02:40;;;;;;;0.60;0.60;;;17.00;99.90;;;;;;5051776;28;20292;-85
2023/10/21 13:05:07;;;;;;;1.00;1.00;;;17.00;99.90;;;;;;5019493;28;20240;-85
2023/10/21 13:07:34;;;;;;;1.63;1.00;;;16.90;99.90;;;;;;5035849;28;20178;-86
2023/10/21 13:10:00;;;;;;;2.40;0.90;;;16.90;99.90;;;;;;5052518;28;20182;-86
2023/10/21 13:12:26;;;;;;;1.37;1.27;;;17.10;99.90;;;;;;5053247;28;20220;-86
2023/10/21 13:14:55;;;;;;;0.73;0.73;;;17.10;99.90;;;;;;5053356;28;20232;-86
2023/10/21 13:17:21;;;;;;;3.67;0.70;;;17.00;99.90;;;;;;5052277;28;20241;-86
2023/10/21 13:19:47;;;;;;;0.63;0.63;;;16.90;99.90;;;;;;5051777;28;20244;-85
2023/10/21 13:22:13;;;;;;;0.57;0.57;;;16.80;99.90;;;;;;5035829;28;20217;-85
2023/10/21 13:24:39;;;;;;;0.60;0.60;;;16.90;99.90;;;;;;5017514;28;20233;-85